createdAt,value
2018-12-11T00:00:40.137Z,1.80
2018-12-11T00:03:09.328Z,1.93
2018-12-11T00:05:38.526Z,1.93
2018-12-11T00:08:07.768Z,2.07
2018-12-11T00:10:37.012Z,2.00
2018-12-11T00:13:06.266Z,2.00
2018-12-11T00:15:36.478Z,2.03
2018-12-11T00:18:05.765Z,2.20
2018-12-11T00:20:34.994Z,2.00
2018-12-11T00:23:05.381Z,1.90
2018-12-11T00:25:34.587Z,1.90
2018-12-11T00:28:03.925Z,1.77
2018-12-11T00:30:33.145Z,1.70
2018-12-11T00:33:02.349Z,2.00
2018-12-11T00:35:31.492Z,1.90
2018-12-11T00:38:00.731Z,1.60
2018-12-11T00:40:29.941Z,1.73
2018-12-11T00:42:59.182Z,1.80
2018-12-11T00:45:28.388Z,1.80
2018-12-11T00:47:57.712Z,1.83
2018-12-11T00:50:26.915Z,1.97
2018-12-11T00:52:56.060Z,2.30
2018-12-11T00:55:25.331Z,1.60
2018-12-11T00:57:54.527Z,1.60
2018-12-11T01:00:23.834Z,1.60
2018-12-11T01:02:53.052Z,1.40
2018-12-11T01:05:22.231Z,1.60
2018-12-11T01:07:51.582Z,1.50
2018-12-11T01:10:20.796Z,1.60
2018-12-11T01:12:50.015Z,1.60
2018-12-11T01:15:19.251Z,1.50
2018-12-11T01:17:48.412Z,1.60
2018-12-11T01:20:17.768Z,1.43
2018-12-11T01:22:46.948Z,1.40
2018-12-11T01:25:16.157Z,1.40
2018-12-11T01:27:45.349Z,1.50
2018-12-11T01:30:14.669Z,1.50
2018-12-11T01:32:43.859Z,1.50
2018-12-11T01:35:13.204Z,1.47
2018-12-11T01:37:42.381Z,1.50
2018-12-11T01:40:11.645Z,1.40
2018-12-11T01:42:41.048Z,1.50
2018-12-11T01:45:10.307Z,1.30
2018-12-11T01:47:39.424Z,1.47
2018-12-11T01:50:08.813Z,1.30
2018-12-11T01:52:38.030Z,1.30
2018-12-11T01:55:07.313Z,1.17
2018-12-11T01:57:36.507Z,1.30
2018-12-11T02:00:07.570Z,1.10
2018-12-11T02:02:36.838Z,1.20
2018-12-11T02:05:06.115Z,1.20
2018-12-11T02:07:35.721Z,1.27
2018-12-11T02:10:05.426Z,1.37
2018-12-11T02:12:34.711Z,1.33
2018-12-11T02:15:04.136Z,1.47
2018-12-11T02:17:33.208Z,1.20
2018-12-11T02:20:02.400Z,1.33
2018-12-11T02:22:31.693Z,1.50
2018-12-11T02:25:00.980Z,1.40
2018-12-11T02:27:30.081Z,1.40
2018-12-11T02:29:59.276Z,1.43
2018-12-11T02:32:28.444Z,1.20
2018-12-11T02:34:57.759Z,1.47
2018-12-11T02:37:26.938Z,1.30
2018-12-11T02:39:56.085Z,1.50
2018-12-11T02:42:25.297Z,1.47
2018-12-11T02:44:54.496Z,1.60
2018-12-11T02:47:23.791Z,1.30
2018-12-11T02:49:52.956Z,1.30
2018-12-11T02:52:22.109Z,1.10
2018-12-11T02:54:51.268Z,1.57
2018-12-11T02:57:20.470Z,1.30
2018-12-11T02:59:49.699Z,1.50
2018-12-11T03:02:18.864Z,1.37
2018-12-11T03:04:48.198Z,1.40
2018-12-11T03:07:17.420Z,1.50
2018-12-11T03:09:46.628Z,1.57
2018-12-11T03:12:15.824Z,1.40
2018-12-11T03:14:44.937Z,1.40
2018-12-11T03:17:14.143Z,1.70
2018-12-11T03:19:43.468Z,1.70
2018-12-11T03:22:12.709Z,1.60
2018-12-11T03:24:41.908Z,1.50
2018-12-11T03:27:11.044Z,1.27
2018-12-11T03:29:40.291Z,1.40
2018-12-11T03:32:09.478Z,1.60
2018-12-11T03:34:38.696Z,1.30
2018-12-11T03:37:08.039Z,1.20
2018-12-11T03:39:37.236Z,1.37
2018-12-11T03:42:06.643Z,1.30
2018-12-11T03:44:35.916Z,1.20
2018-12-11T03:47:05.073Z,0.90
2018-12-11T03:49:34.583Z,1.40
2018-12-11T03:52:03.770Z,1.20
2018-12-11T03:54:32.947Z,1.10
2018-12-11T03:57:02.048Z,1.10
2018-12-11T03:59:31.288Z,1.00
2018-12-11T04:02:00.436Z,1.30
2018-12-11T04:04:29.827Z,1.07
2018-12-11T04:06:58.995Z,1.10
2018-12-11T04:09:28.153Z,1.00
2018-12-11T04:12:04.638Z,1.00
2018-12-11T04:14:34.120Z,1.00
2018-12-11T04:17:03.346Z,1.00
2018-12-11T04:19:32.529Z,1.10
2018-12-11T04:22:01.758Z,1.00
2018-12-11T04:24:31.032Z,0.90
2018-12-11T04:27:00.373Z,1.00
2018-12-11T04:29:29.518Z,1.17
2018-12-11T04:31:58.661Z,1.20
2018-12-11T04:34:27.972Z,1.03
2018-12-11T04:36:57.416Z,1.10
2018-12-11T04:39:26.556Z,1.10
2018-12-11T04:41:55.689Z,1.20
2018-12-11T04:44:24.900Z,1.27
2018-12-11T04:46:54.284Z,1.10
2018-12-11T04:49:23.406Z,1.00
2018-12-11T04:51:52.569Z,1.20
2018-12-11T04:54:21.732Z,1.20
2018-12-11T04:56:50.970Z,1.10
2018-12-11T04:59:20.147Z,2.00
2018-12-11T05:01:49.337Z,1.57
2018-12-11T05:04:18.672Z,1.47
2018-12-11T05:06:47.791Z,1.90
2018-12-11T05:09:16.995Z,1.90
2018-12-11T05:11:46.401Z,1.83
2018-12-11T05:14:15.700Z,2.00
2018-12-11T05:16:44.862Z,1.93
2018-12-11T05:19:14.124Z,2.03
2018-12-11T05:21:43.219Z,2.43
2018-12-11T05:24:12.312Z,2.07
2018-12-11T05:26:41.520Z,2.13
2018-12-11T05:29:10.713Z,2.00
2018-12-11T05:31:39.869Z,2.23
2018-12-11T05:34:09.060Z,1.90
2018-12-11T05:36:38.310Z,1.90
2018-12-11T05:39:08.075Z,2.03
2018-12-11T05:41:37.300Z,1.53
2018-12-11T05:44:06.443Z,2.13
2018-12-11T05:46:35.616Z,1.90
2018-12-11T05:49:04.990Z,1.90
2018-12-11T05:51:34.216Z,2.40
2018-12-11T05:54:03.637Z,2.47
2018-12-11T05:56:32.846Z,2.10
2018-12-11T05:59:02.057Z,2.27
2018-12-11T06:01:31.197Z,2.90
2018-12-11T06:04:00.424Z,4.40
2018-12-11T06:06:29.711Z,5.30
2018-12-11T06:08:59.154Z,6.90
2018-12-11T06:11:28.583Z,7.30
2018-12-11T06:13:57.874Z,6.53
2018-12-11T06:16:27.306Z,7.87
2018-12-11T06:18:56.687Z,5.30
2018-12-11T06:21:26.190Z,6.80
2018-12-11T06:23:55.488Z,4.27
2018-12-11T06:26:24.847Z,6.00
2018-12-11T06:28:54.140Z,5.57
2018-12-11T06:31:23.600Z,5.50
2018-12-11T06:33:52.915Z,3.87
2018-12-11T06:36:22.199Z,4.70
2018-12-11T06:38:51.700Z,5.80
2018-12-11T06:41:21.051Z,4.60
2018-12-11T06:43:50.414Z,4.57
2018-12-11T06:46:19.807Z,4.57
2018-12-11T06:48:49.331Z,5.07
2018-12-11T06:51:18.816Z,4.37
2018-12-11T06:53:48.137Z,5.63
2018-12-11T06:56:17.544Z,5.13
2018-12-11T06:58:46.939Z,4.13
2018-12-11T07:01:16.251Z,4.67
2018-12-11T07:03:45.613Z,4.40
2018-12-11T07:06:14.904Z,2.60
2018-12-11T07:08:44.199Z,4.43
2018-12-11T07:11:13.496Z,4.87
2018-12-11T07:13:42.793Z,5.13
2018-12-11T07:16:12.146Z,3.80
2018-12-11T07:18:41.559Z,4.03
2018-12-11T07:21:10.895Z,3.23
2018-12-11T07:23:40.230Z,4.10
2018-12-11T07:26:09.509Z,4.33
2018-12-11T07:28:38.931Z,4.50
2018-12-11T07:31:08.316Z,3.97
2018-12-11T07:33:37.775Z,3.60
2018-12-11T07:36:07.047Z,2.27
2018-12-11T07:38:36.384Z,3.40
2018-12-11T07:41:05.796Z,3.77
2018-12-11T07:43:35.107Z,3.90
2018-12-11T07:46:04.541Z,3.07
2018-12-11T07:48:34.003Z,3.13
2018-12-11T07:51:03.392Z,4.23
2018-12-11T07:53:32.792Z,3.87
2018-12-11T07:56:02.148Z,4.60
2018-12-11T07:58:31.473Z,4.97
2018-12-11T08:01:00.910Z,4.43
2018-12-11T08:03:30.291Z,4.77
2018-12-11T08:05:59.700Z,4.87
2018-12-11T08:08:29.071Z,5.43
2018-12-11T08:10:58.369Z,4.60
2018-12-11T08:13:27.748Z,5.43
2018-12-11T08:15:57.085Z,4.83
2018-12-11T08:18:26.392Z,5.53
2018-12-11T08:20:55.848Z,4.67
2018-12-11T08:23:25.211Z,5.03
2018-12-11T08:25:54.607Z,4.47
2018-12-11T08:28:24.018Z,4.50
2018-12-11T08:30:53.335Z,4.57
2018-12-11T08:33:22.736Z,4.20
2018-12-11T08:35:52.064Z,4.50
2018-12-11T08:38:21.421Z,4.30
2018-12-11T08:40:50.804Z,4.87
2018-12-11T08:43:20.140Z,4.80
2018-12-11T08:45:49.511Z,4.90
2018-12-11T08:48:18.928Z,4.40
2018-12-11T08:50:48.264Z,4.30
2018-12-11T08:53:17.656Z,4.63
2018-12-11T08:55:47.029Z,4.43
2018-12-11T08:58:16.319Z,3.73
2018-12-11T09:00:45.733Z,3.90
2018-12-11T09:03:15.104Z,3.80
2018-12-11T09:05:44.470Z,3.93
2018-12-11T09:08:13.731Z,4.07
2018-12-11T09:10:43.156Z,4.20
2018-12-11T09:13:12.484Z,3.70
2018-12-11T09:15:41.839Z,4.47
2018-12-11T09:18:11.140Z,4.27
2018-12-11T09:20:40.540Z,4.23
2018-12-11T09:23:09.930Z,4.47
2018-12-11T09:25:39.309Z,4.10
2018-12-11T09:28:11.130Z,4.53
2018-12-11T09:30:40.013Z,4.60
2018-12-11T09:33:09.445Z,4.20
2018-12-11T09:35:38.740Z,3.90
2018-12-11T09:38:08.080Z,3.93
2018-12-11T09:40:37.429Z,3.33
2018-12-11T09:43:06.845Z,3.40
2018-12-11T09:45:37.110Z,3.50
2018-12-11T09:48:06.406Z,3.10
2018-12-11T09:50:35.767Z,3.57
2018-12-11T09:53:05.149Z,3.60
2018-12-11T09:55:34.605Z,3.70
2018-12-11T09:58:03.985Z,3.87
2018-12-11T10:00:33.476Z,3.40
2018-12-11T10:03:02.880Z,3.53
2018-12-11T10:05:32.289Z,3.60
2018-12-11T10:08:02.128Z,3.60
2018-12-11T10:10:31.516Z,3.57
2018-12-11T10:13:01.031Z,3.40
2018-12-11T10:15:30.464Z,3.60
2018-12-11T10:17:59.740Z,3.43
2018-12-11T10:20:29.141Z,3.40
2018-12-11T10:22:58.677Z,3.97
2018-12-11T10:25:28.056Z,4.40
2018-12-11T10:27:57.395Z,3.33
2018-12-11T10:30:30.968Z,3.40
2018-12-11T10:33:00.296Z,3.53
2018-12-11T10:35:29.657Z,3.77
2018-12-11T10:37:59.120Z,3.47
2018-12-11T10:40:28.479Z,3.20
2018-12-11T10:42:57.902Z,3.17
2018-12-11T10:45:27.329Z,3.47
2018-12-11T10:47:56.647Z,3.20
2018-12-11T10:50:25.951Z,2.93
2018-12-11T10:52:55.337Z,3.23
2018-12-11T10:55:24.711Z,3.03
2018-12-11T10:57:54.078Z,2.80
2018-12-11T11:00:28.495Z,3.43
2018-12-11T11:03:02.811Z,2.70
2018-12-11T11:05:32.180Z,3.10
2018-12-11T11:08:01.547Z,3.40
2018-12-11T11:10:30.988Z,2.70
2018-12-11T11:13:00.426Z,2.70
2018-12-11T11:15:29.824Z,2.87
2018-12-11T11:17:59.361Z,3.10
2018-12-11T11:20:28.737Z,2.77
2018-12-11T11:22:58.092Z,2.70
2018-12-11T11:25:27.562Z,2.60
2018-12-11T11:27:57.076Z,2.97
2018-12-11T11:30:26.504Z,3.03
2018-12-11T11:32:55.833Z,2.70
2018-12-11T11:35:25.163Z,3.07
2018-12-11T11:37:54.534Z,3.20
2018-12-11T11:40:23.844Z,3.43
2018-12-11T11:42:53.134Z,2.70
2018-12-11T11:45:22.570Z,2.77
2018-12-11T11:47:51.898Z,2.53
2018-12-11T11:50:21.332Z,2.63
2018-12-11T11:52:50.654Z,2.63
2018-12-11T11:55:20.055Z,2.60
2018-12-11T11:57:49.516Z,2.40
2018-12-11T12:00:18.997Z,2.30
2018-12-11T12:02:48.308Z,2.50
2018-12-11T12:05:17.648Z,2.50
2018-12-11T12:07:46.980Z,2.63
2018-12-11T12:10:16.411Z,2.50
2018-12-11T12:12:45.835Z,2.10
2018-12-11T12:15:15.245Z,2.50
2018-12-11T12:17:44.550Z,2.70
2018-12-11T12:20:14.012Z,2.37
2018-12-11T12:25:47.363Z,2.80
2018-12-11T12:28:16.782Z,3.37
2018-12-11T12:30:46.715Z,3.80
2018-12-11T12:33:15.959Z,4.43
2018-12-11T12:35:45.340Z,3.67
2018-12-11T12:38:14.733Z,3.50
2018-12-11T12:40:44.034Z,3.10
2018-12-11T12:43:13.472Z,3.03
2018-12-11T12:45:42.848Z,3.30
2018-12-11T12:48:12.197Z,2.67
2018-12-11T12:50:41.547Z,3.10
2018-12-11T12:53:11.044Z,2.73
2018-12-11T12:55:40.428Z,2.60
2018-12-11T12:58:09.771Z,2.80
2018-12-11T13:00:39.166Z,2.60
2018-12-11T13:03:08.869Z,2.30
2018-12-11T13:05:38.157Z,2.30
2018-12-11T13:08:07.532Z,2.33
2018-12-11T13:10:36.924Z,2.50
2018-12-11T13:13:06.352Z,2.37
2018-12-11T13:15:35.752Z,2.30
2018-12-11T13:18:05.181Z,2.23
2018-12-11T13:20:34.477Z,2.07
2018-12-11T13:23:03.795Z,2.20
2018-12-11T13:25:33.118Z,2.50
2018-12-11T13:28:02.449Z,2.40
2018-12-11T13:30:32.011Z,2.30
2018-12-11T13:33:01.351Z,2.60
2018-12-11T13:35:30.757Z,1.90
2018-12-11T13:38:00.085Z,2.03
2018-12-11T13:40:29.628Z,2.20
2018-12-11T13:42:59.179Z,2.07
2018-12-11T13:45:28.670Z,2.00
2018-12-11T13:47:58.110Z,2.00
2018-12-11T13:50:27.580Z,2.20
2018-12-11T13:52:56.887Z,1.80
2018-12-11T13:55:26.333Z,2.27
2018-12-11T13:57:55.677Z,1.90
2018-12-11T14:00:25.085Z,2.30
2018-12-11T14:02:54.433Z,1.97
2018-12-11T14:05:23.701Z,2.07
2018-12-11T14:07:53.156Z,2.20
2018-12-11T14:10:22.411Z,2.33
2018-12-11T14:12:51.779Z,2.10
2018-12-11T14:15:21.184Z,2.20
2018-12-11T14:17:50.489Z,2.40
2018-12-11T14:20:19.890Z,2.00
2018-12-11T14:22:49.237Z,2.20
2018-12-11T14:25:18.700Z,2.47
2018-12-11T14:27:48.120Z,2.47
2018-12-11T14:30:17.448Z,2.57
2018-12-11T14:32:46.763Z,2.10
2018-12-11T14:35:16.197Z,2.20
2018-12-11T14:37:45.574Z,2.00
2018-12-11T14:40:15.307Z,2.57
2018-12-11T14:42:44.811Z,2.83
2018-12-11T14:45:14.304Z,3.00
2018-12-11T14:47:43.707Z,3.60
2018-12-11T14:50:13.005Z,3.40
2018-12-11T14:52:42.377Z,3.40
2018-12-11T14:55:11.725Z,3.97
2018-12-11T14:57:41.009Z,3.90
2018-12-11T15:00:11.201Z,2.80
2018-12-11T15:02:40.860Z,3.13
2018-12-11T15:05:10.580Z,3.17
2018-12-11T15:07:40.000Z,2.80
2018-12-11T15:10:11.585Z,2.40
2018-12-11T15:12:41.000Z,2.77
2018-12-11T15:15:11.334Z,2.60
2018-12-11T15:17:40.667Z,2.50
2018-12-11T15:20:10.570Z,2.50
2018-12-11T15:22:39.867Z,2.50
2018-12-11T15:25:09.314Z,2.67
2018-12-11T15:27:38.836Z,2.60
2018-12-11T15:30:08.605Z,2.90
2018-12-11T15:32:40.881Z,2.40
2018-12-11T15:35:10.231Z,2.33
2018-12-11T15:37:39.632Z,2.60
2018-12-11T15:40:09.000Z,2.47
2018-12-11T15:42:38.388Z,2.50
2018-12-11T15:45:08.659Z,2.50
2018-12-11T15:47:37.907Z,2.70
2018-12-11T15:50:07.929Z,2.30
2018-12-11T15:52:37.280Z,2.00
2018-12-11T15:55:07.548Z,2.60
2018-12-11T15:57:36.887Z,2.10
2018-12-11T16:00:07.815Z,2.27
2018-12-11T16:02:37.139Z,2.40
2018-12-11T16:05:07.189Z,2.20
2018-12-11T16:07:36.612Z,2.33
2018-12-11T16:10:07.620Z,2.77
2018-12-11T16:12:36.947Z,2.50
2018-12-11T16:15:06.778Z,2.40
2018-12-11T16:17:36.156Z,2.30
2018-12-11T16:20:05.714Z,2.30
2018-12-11T16:22:35.027Z,2.40
2018-12-11T16:25:04.853Z,2.43
2018-12-11T16:27:34.384Z,2.80
2018-12-11T16:30:03.773Z,2.60
2018-12-11T16:32:33.160Z,2.50
2018-12-11T16:35:02.717Z,2.70
2018-12-11T16:37:32.391Z,2.50
2018-12-11T16:40:04.529Z,2.90
2018-12-11T16:42:33.335Z,2.67
2018-12-11T16:45:02.677Z,2.60
2018-12-11T16:47:31.971Z,2.60
2018-12-11T16:50:01.312Z,2.83
2018-12-11T16:52:30.620Z,3.10
2018-12-11T16:55:00.003Z,3.20
2018-12-11T16:57:29.420Z,3.13
2018-12-11T16:59:58.800Z,3.33
2018-12-11T17:02:28.164Z,3.40
2018-12-11T17:04:57.826Z,3.83
2018-12-11T17:07:27.520Z,3.37
2018-12-11T17:09:56.905Z,3.67
2018-12-11T17:12:26.481Z,3.60
2018-12-11T17:14:57.108Z,3.70
2018-12-11T17:17:26.841Z,3.67
2018-12-11T17:19:56.140Z,3.70
2018-12-11T17:22:25.476Z,3.60
2018-12-11T17:24:54.773Z,3.47
2018-12-11T17:27:24.148Z,3.43
2018-12-11T17:29:53.569Z,3.60
2018-12-11T17:32:22.953Z,3.67
2018-12-11T17:34:52.307Z,3.73
2018-12-11T17:37:21.589Z,3.80
2018-12-11T17:39:51.013Z,3.73
2018-12-11T17:42:20.371Z,3.33
2018-12-11T17:44:49.736Z,4.00
2018-12-11T17:47:19.124Z,3.67
2018-12-11T17:49:48.424Z,4.03
2018-12-11T17:52:17.877Z,4.30
2018-12-11T17:54:47.265Z,4.97
2018-12-11T17:57:16.595Z,5.23
2018-12-11T17:59:45.892Z,5.10
2018-12-11T18:02:19.404Z,5.27
2018-12-11T18:04:48.846Z,4.53
2018-12-11T18:07:18.182Z,4.37
2018-12-11T18:09:47.779Z,4.70
2018-12-11T18:12:17.199Z,4.67
2018-12-11T18:14:46.563Z,4.77
2018-12-11T18:17:15.879Z,4.87
2018-12-11T18:19:45.267Z,5.60
2018-12-11T18:22:14.537Z,4.77
2018-12-11T18:24:43.944Z,5.47
2018-12-11T18:27:13.371Z,5.63
2018-12-11T18:29:42.736Z,6.30
2018-12-11T18:32:12.264Z,6.57
2018-12-11T18:34:47.256Z,5.80
2018-12-11T18:37:16.572Z,6.27
2018-12-11T18:39:46.031Z,5.80
2018-12-11T18:42:15.451Z,6.43
2018-12-11T18:44:44.911Z,6.13
2018-12-11T18:47:14.317Z,5.83
2018-12-11T18:49:43.688Z,7.20
2018-12-11T18:52:13.093Z,6.37
2018-12-11T18:54:42.419Z,7.60
2018-12-11T18:57:11.834Z,7.27
2018-12-11T18:59:41.216Z,8.10
2018-12-11T19:02:10.871Z,6.57
2018-12-11T19:04:40.302Z,8.30
2018-12-11T19:07:09.721Z,8.23
2018-12-11T19:09:39.023Z,8.03
2018-12-11T19:12:08.482Z,8.53
2018-12-11T19:14:37.938Z,7.83
2018-12-11T19:17:07.351Z,8.63
2018-12-11T19:20:01.494Z,7.90
2018-12-11T19:22:45.451Z,6.63
2018-12-11T19:25:32.806Z,6.97
2018-12-11T19:28:02.280Z,5.97
2018-12-11T19:30:31.872Z,5.90
2018-12-11T19:33:01.229Z,5.90
2018-12-11T19:39:01.731Z,6.40
2018-12-11T19:42:17.651Z,6.70
2018-12-11T19:44:47.092Z,7.47
2018-12-11T19:47:16.540Z,7.87
2018-12-11T19:49:45.971Z,6.30
2018-12-11T19:52:15.497Z,6.63
2018-12-11T19:54:44.917Z,5.60
2018-12-11T19:57:14.385Z,6.43
2018-12-11T19:59:43.794Z,6.50
2018-12-11T20:02:13.218Z,6.80
2018-12-11T20:04:48.975Z,6.33
2018-12-11T20:07:37.731Z,7.63
2018-12-11T20:10:12.740Z,5.73
2018-12-11T20:13:23.679Z,4.33
2018-12-11T20:15:53.194Z,4.50
2018-12-11T20:18:30.260Z,5.97
2018-12-11T20:26:19.516Z,6.20
2018-12-11T20:28:49.447Z,5.73
2018-12-11T20:31:21.783Z,4.57
2018-12-11T20:33:55.785Z,4.87
2018-12-11T20:36:42.034Z,5.10
2018-12-11T20:39:19.690Z,4.70
2018-12-11T20:41:50.460Z,4.63
2018-12-11T20:44:27.546Z,4.00
2018-12-11T20:47:00.835Z,4.37
2018-12-11T20:49:35.494Z,3.90
2018-12-11T20:52:07.701Z,3.53
2018-12-11T20:54:38.189Z,3.37
2018-12-11T20:57:08.457Z,3.43
2018-12-11T21:00:13.457Z,4.10
2018-12-11T21:02:52.199Z,3.90
2018-12-11T21:05:33.667Z,3.60
2018-12-11T21:08:29.430Z,4.10
2018-12-11T21:11:00.331Z,3.87
2018-12-11T21:13:31.257Z,4.23
2018-12-11T21:16:01.658Z,4.77
2018-12-11T21:18:31.504Z,4.97
2018-12-11T21:21:01.367Z,4.50
2018-12-11T21:23:31.582Z,5.00
2018-12-11T21:26:01.680Z,5.37
2018-12-11T21:28:31.633Z,5.27
2018-12-11T21:31:01.223Z,4.80
2018-12-11T21:33:30.855Z,4.70
2018-12-11T21:36:00.518Z,4.57
2018-12-11T21:38:30.302Z,4.27
2018-12-11T21:40:59.829Z,4.07
2018-12-11T21:43:29.269Z,3.50
2018-12-11T21:45:58.678Z,4.87
2018-12-11T21:48:28.141Z,4.30
2018-12-11T21:50:57.756Z,4.30
2018-12-11T21:53:27.294Z,4.57
2018-12-11T21:55:56.713Z,3.53
2018-12-11T21:58:26.133Z,3.03
2018-12-11T22:00:55.595Z,3.60
2018-12-11T22:03:25.359Z,3.63
2018-12-11T22:05:55.127Z,3.80
2018-12-11T22:08:24.641Z,3.30
2018-12-11T22:10:54.073Z,3.20
2018-12-11T22:13:23.600Z,3.20
2018-12-11T22:15:53.028Z,3.33
2018-12-11T22:18:22.523Z,3.50
2018-12-11T22:20:51.929Z,3.63
2018-12-11T22:23:21.327Z,3.37
2018-12-11T22:25:50.847Z,3.30
2018-12-11T22:28:20.326Z,3.30
2018-12-11T22:30:49.628Z,4.00
2018-12-11T22:33:18.931Z,3.70
2018-12-11T22:35:48.345Z,3.90
2018-12-11T22:38:18.235Z,3.80
2018-12-11T22:40:47.579Z,3.73
2018-12-11T22:43:16.939Z,3.97
2018-12-11T22:45:46.375Z,3.47
2018-12-11T22:48:15.803Z,3.77
2018-12-11T22:50:45.217Z,4.00
2018-12-11T22:53:14.552Z,3.80
2018-12-11T22:55:43.853Z,4.00
2018-12-11T22:58:13.164Z,3.60
2018-12-11T23:00:44.460Z,4.00
2018-12-11T23:03:13.853Z,3.57
2018-12-11T23:05:43.205Z,3.57
2018-12-11T23:08:12.576Z,3.40
2018-12-11T23:10:42.013Z,3.93
2018-12-11T23:13:11.428Z,3.80
2018-12-11T23:15:40.797Z,3.70
2018-12-11T23:18:10.104Z,3.57
2018-12-11T23:20:39.522Z,4.20
2018-12-11T23:23:08.881Z,4.10
2018-12-11T23:25:38.220Z,4.30
2018-12-11T23:28:07.596Z,4.13
2018-12-11T23:30:36.931Z,4.10
2018-12-11T23:33:06.426Z,4.10
2018-12-11T23:35:35.688Z,4.00
2018-12-11T23:38:05.034Z,3.80
2018-12-11T23:40:34.449Z,4.43
2018-12-11T23:43:03.724Z,3.67
2018-12-11T23:45:33.120Z,4.03
2018-12-11T23:48:02.451Z,3.80
2018-12-11T23:50:31.793Z,4.23
2018-12-11T23:53:01.228Z,4.40
2018-12-11T23:55:30.705Z,3.77
2018-12-11T23:58:00.041Z,4.00
